Terminal Aerodrome Forecast
Issued by NWS

Home | Current Version | Previous Version | Text Only | Print | Product List | Glossary On
Versions: 1 2 3 4 5 6 7 8 9 10 11 12 13 14 15 16 17 18 19 20 21 22
000
FTUS43 KIND 231300 AAA
TAFLAF
TAF AMD
KLAF 231303Z 2313/2412 VRB04KT P6SM SCT020
      TEMPO 2313/2315 BKN020
     FM231500 14005KT P6SM SCT015 BKN250
     FM232000 14005KT P6SM VCTS SCT025CB SCT080 BKN250
     FM240400 08005KT P6SM SCT080 BKN250=

USA.gov is the U.S. government's official web portal to all federal, state and local government web resources and services.